Time;durP1;ratioP1;P1;durP2;ratioP2;P2;SDS_P1;SDS_P2;PMS_P1;PMS_P2;Temp;Humidity;BMP_temperature;BMP_pressure;BME280_temperature;BME280_humidity;BME280_pressure;Samples;Min_cycle;Max_cycle;Signal;HPM_P1;HPM_P2
2024/03/29 01:45:09;;;;;;;2.17;1.00;;;;;;;8.11;63.36;153441.69;5060523;27;20219;-91
2024/03/29 01:47:36;;;;;;;1.83;0.80;;;;;;;8.16;62.66;153454.59;5095132;27;20240;-90
2024/03/29 01:50:04;;;;;;;1.10;0.70;;;;;;;8.17;63.12;153458.50;5105310;27;20912;-90
2024/03/29 01:52:31;;;;;;;1.63;0.60;;;;;;;8.19;62.92;153462.38;5061171;28;20883;-90
2024/03/29 01:54:59;;;;;;;1.53;1.00;;;;;;;8.19;62.51;153463.66;5090516;28;21078;-91
2024/03/29 01:57:26;;;;;;;1.80;0.83;;;;;;;8.17;63.70;153458.50;5071304;28;20935;-90
2024/03/29 01:59:52;;;;;;;1.40;1.00;;;;;;;8.19;63.17;153463.66;5104788;27;20455;-91
2024/03/29 02:02:19;;;;;;;1.33;0.80;;;;;;;8.17;63.11;153458.50;5109100;28;20448;-91
2024/03/29 02:04:45;;;;;;;1.10;0.80;;;;;;;8.15;64.48;153453.34;5086325;28;20437;-90
2024/03/29 02:07:12;;;;;;;0.80;0.50;;;;;;;8.13;63.90;153448.13;5080651;28;20456;-91
2024/03/29 02:09:39;;;;;;;1.10;0.90;;;;;;;8.11;64.89;153443.00;5106453;28;20449;-91
2024/03/29 02:12:08;;;;;;;1.37;1.00;;;;;;;8.09;67.04;153437.81;5080228;28;20475;-91
2024/03/29 02:14:34;;;;;;;1.70;1.20;;;;;;;8.03;64.99;153422.31;5104948;28;20484;-90
2024/03/29 02:17:00;;;;;;;1.20;0.67;;;;;;;8.03;65.15;153422.31;5102071;28;20556;-90
2024/03/29 02:19:27;;;;;;;1.23;0.83;;;;;;;8.03;64.24;153422.31;5109834;28;20464;-90
2024/03/29 02:21:56;;;;;;;1.27;1.00;;;;;;;8.04;66.07;153424.91;5093977;28;20855;-90
2024/03/29 02:24:24;;;;;;;1.10;0.90;;;;;;;8.00;65.43;153414.53;5112872;28;20460;-90
2024/03/29 02:26:50;;;;;;;1.70;1.13;;;;;;;7.98;65.57;153409.41;5090072;28;20468;-90
2024/03/29 02:29:17;;;;;;;1.97;0.93;;;;;;;7.99;67.09;153412.00;5099105;28;20452;-91
2024/03/29 02:31:43;;;;;;;1.47;0.90;;;;;;;7.95;66.75;153401.63;5088643;28;20991;-90
2024/03/29 02:34:10;;;;;;;2.13;1.13;;;;;;;7.93;67.37;153396.47;5089334;28;20456;-90
2024/03/29 02:36:37;;;;;;;2.87;1.17;;;;;;;7.90;68.28;153388.72;5097888;28;20460;-90
2024/03/29 02:39:04;;;;;;;1.63;1.00;;;;;;;7.85;67.38;153375.81;5086282;28;20422;-90
2024/03/29 02:41:32;;;;;;;1.37;1.13;;;;;;;7.85;67.27;153377.09;5107463;28;20455;-89
2024/03/29 02:43:58;;;;;;;1.07;0.90;;;;;;;7.86;67.06;153378.41;5090378;28;20438;-90
2024/03/29 02:46:25;;;;;;;1.20;0.90;;;;;;;7.86;67.91;153378.41;5098761;28;20545;-90
2024/03/29 02:48:50;;;;;;;1.50;1.10;;;;;;;7.83;67.16;153370.66;5088420;28;20947;-90
2024/03/29 02:51:17;;;;;;;2.87;1.13;;;;;;;7.87;67.39;153380.97;5099052;27;20475;-90
2024/03/29 02:53:42;;;;;;;1.50;0.93;;;;;;;7.86;67.11;153379.66;5110948;28;20204;-90
2024/03/29 02:56:09;;;;;;;1.47;0.80;;;;;;;7.87;65.63;153382.25;5070232;28;20467;-88
2024/03/29 02:58:36;;;;;;;1.67;1.10;;;;;;;7.92;67.69;153393.88;5092352;28;20302;-90
2024/03/29 03:01:06;;;;;;;1.20;0.90;;;;;;;7.92;67.98;153393.88;5085933;28;20464;-89
2024/03/29 03:03:33;;;;;;;1.00;0.63;;;;;;;7.88;67.75;153383.56;5104182;28;20480;-89
2024/03/29 03:05:59;;;;;;;1.00;0.77;;;;;;;7.86;67.87;153378.41;5087848;28;20444;-88
2024/03/29 03:11:10;;;;;;;1.40;0.73;;;;;;;7.83;71.43;153371.94;5075962;28;20210;-89
2024/03/29 03:13:38;;;;;;;1.13;0.70;;;;;;;7.81;72.28;153365.50;5104478;28;20513;-91
2024/03/29 03:16:04;;;;;;;1.23;0.70;;;;;;;7.77;74.99;153355.13;5095809;28;20959;-89
2024/03/29 03:18:30;;;;;;;1.20;0.70;;;;;;;7.71;75.34;153340.91;5067315;28;20445;-88
2024/03/29 03:20:57;;;;;;;1.90;0.73;;;;;;;7.68;73.32;153333.16;5106955;28;21310;-89
2024/03/29 03:23:24;;;;;;;1.20;0.70;;;;;;;7.70;69.72;153337.06;5103247;28;20455;-89
2024/03/29 03:25:54;;;;;;;1.70;1.03;;;;;;;7.77;69.06;153356.44;5093850;27;20449;-89
2024/03/29 03:28:21;;;;;;;0.90;0.60;;;;;;;7.83;69.50;153371.94;5087878;28;21098;-90
2024/03/29 03:30:48;;;;;;;2.23;1.07;;;;;;;7.89;70.63;153387.41;5060833;28;20459;-89
2024/03/29 03:33:15;;;;;;;1.77;0.60;;;;;;;7.87;72.26;153382.25;5080456;28;20456;-88
2024/03/29 03:35:41;;;;;;;1.50;0.70;;;;;;;7.85;74.24;153377.09;5064800;28;20557;-89
2024/03/29 03:38:08;;;;;;;1.37;0.90;;;;;;;7.80;75.88;153362.88;5108743;28;20524;-88
2024/03/29 03:40:34;;;;;;;1.43;0.77;;;;;;;7.78;76.99;153358.97;5092561;28;20799;-93
2024/03/29 03:43:00;;;;;;;3.00;1.03;;;;;;;7.75;78.44;153349.97;5059682;28;20518;-91
2024/03/29 03:45:26;;;;;;;1.20;0.70;;;;;;;7.74;79.65;153347.38;5082389;28;20215;-90
2024/03/29 03:47:54;;;;;;;1.70;1.03;;;;;;;7.66;79.90;153326.72;5108717;28;20451;-90
2024/03/29 03:50:19;;;;;;;1.20;0.80;;;;;;;7.64;79.46;153321.56;5112344;28;20251;-91
2024/03/29 03:52:46;;;;;;;1.53;1.20;;;;;;;7.73;68.94;153344.81;5091475;28;20493;-89
2024/03/29 03:55:11;;;;;;;1.10;1.00;;;;;;;7.89;70.90;153387.41;5106404;27;20256;-91
2024/03/29 03:57:38;;;;;;;1.57;1.03;;;;;;;7.89;75.61;153386.13;5091323;28;20464;-90
2024/03/29 04:00:05;;;;;;;1.10;0.70;;;;;;;7.84;75.83;153373.19;5072570;28;20268;-90
2024/03/29 04:02:39;;;;;;;1.30;0.80;;;;;;;7.82;75.75;153368.03;5103139;28;20934;-90
2024/03/29 04:05:06;;;;;;;1.10;0.70;;;;;;;7.80;72.84;153362.88;5073559;28;20467;-90
2024/03/29 04:07:33;;;;;;;1.63;0.83;;;;;;;7.87;76.00;153382.25;5120422;27;20479;-90
2024/03/29 04:09:58;;;;;;;1.03;0.60;;;;;;;7.83;79.16;153371.94;5097493;28;20943;-90
2024/03/29 04:12:25;;;;;;;1.40;0.70;;;;;;;7.79;79.88;153361.59;5094072;28;20489;-90
2024/03/29 04:14:51;;;;;;;3.40;2.40;;;;;;;7.72;77.08;153342.22;5124685;27;20207;-91
2024/03/29 04:17:17;;;;;;;3.07;2.77;;;;;;;7.75;75.00;153349.97;5085975;28;20521;-89
2024/03/29 04:19:42;;;;;;;3.43;3.13;;;;;;;7.77;73.45;153355.13;5100985;28;20212;-90
2024/03/29 04:22:11;;;;;;;1.60;1.30;;;;;;;7.84;73.80;153373.19;5095284;28;20452;-89
2024/03/29 04:24:36;;;;;;;3.17;2.20;;;;;;;7.81;72.02;153366.75;5093564;28;20214;-90
2024/03/29 04:27:04;;;;;;;1.10;0.80;;;;;;;7.85;71.34;153377.09;5074227;28;20432;-90
2024/03/29 04:29:29;;;;;;;1.70;0.90;;;;;;;7.90;70.83;153388.72;5073074;28;20216;-90
2024/03/29 04:31:56;;;;;;;1.13;0.80;;;;;;;7.94;68.24;153400.34;5089016;28;20482;-90
2024/03/29 04:34:46;;;;;;;1.40;0.73;;;;;;;8.05;67.28;153426.22;5106545;28;20205;-92
2024/03/29 04:45:44;;;;;;;1.00;0.70;;;;;;;8.02;73.39;153419.75;5065099;28;20475;-93
2024/03/29 04:48:11;;;;;;;1.20;0.60;;;;;;;8.03;73.81;153421.00;5080639;28;20439;-93
2024/03/29 04:50:37;;;;;;;1.10;0.70;;;;;;;8.04;74.64;153423.63;5113833;28;20450;-92
2024/03/29 04:53:04;;;;;;;1.40;1.00;;;;;;;7.96;68.56;153404.22;5104159;28;20467;-92
2024/03/29 04:55:31;;;;;;;0.90;0.50;;;;;;;8.22;64.12;153471.44;5075773;28;20929;-93
2024/03/29 04:57:57;;;;;;;1.57;0.90;;;;;;;8.30;68.81;153492.16;5093520;28;20437;-93
2024/03/29 05:00:24;;;;;;;1.97;0.93;;;;;;;8.25;70.82;153479.19;5065880;28;20923;-92
2024/03/29 05:02:52;;;;;;;0.87;0.60;;;;;;;8.21;71.20;153468.81;5089606;28;20443;-90
2024/03/29 05:05:17;;;;;;;1.23;0.70;;;;;;;8.18;72.56;153461.06;5107419;28;20481;-90
2024/03/29 05:07:44;;;;;;;1.17;0.60;;;;;;;8.19;73.38;153463.66;5119080;27;20901;-91
2024/03/29 05:10:10;;;;;;;0.90;0.60;;;;;;;8.14;74.92;153450.75;5094717;28;20367;-90
2024/03/29 05:12:37;;;;;;;1.20;0.60;;;;;;;8.10;75.95;153440.38;5113301;28;20468;-90
2024/03/29 05:15:04;;;;;;;1.10;0.90;;;;;;;8.07;71.47;153431.38;5062150;28;20445;-91
2024/03/29 05:17:31;;;;;;;1.50;0.70;;;;;;;8.08;68.68;153435.22;5103323;27;20464;-90
2024/03/29 05:19:58;;;;;;;1.10;0.50;;;;;;;8.14;69.83;153449.44;5094711;28;20440;-91
2024/03/29 05:22:25;;;;;;;0.80;0.60;;;;;;;8.14;68.35;153449.44;5074661;28;20432;-90
2024/03/29 05:24:53;;;;;;;1.47;0.77;;;;;;;8.20;68.14;153466.28;5121392;27;20439;-91
2024/03/29 05:27:20;;;;;;;0.97;0.47;;;;;;;8.19;68.49;153462.38;5087867;28;20443;-90
2024/03/29 05:29:47;;;;;;;1.00;0.50;;;;;;;8.20;71.31;153466.28;5107192;28;20858;-91
2024/03/29 05:32:13;;;;;;;1.30;0.77;;;;;;;8.20;70.56;153466.28;5093771;28;21032;-91
2024/03/29 05:34:40;;;;;;;1.10;0.70;;;;;;;8.21;69.23;153468.81;5068300;28;20443;-90
2024/03/29 05:37:08;;;;;;;0.80;0.50;;;;;;;8.21;67.76;153468.81;5112482;28;20448;-90
2024/03/29 05:39:35;;;;;;;2.00;0.50;;;;;;;8.27;69.38;153483.09;5105391;28;20440;-91
2024/03/29 05:42:01;;;;;;;1.17;0.90;;;;;;;8.30;68.77;153490.84;5085865;28;20479;-90
2024/03/29 05:44:28;;;;;;;0.90;0.50;;;;;;;8.30;68.57;153492.16;5092872;28;20506;-91
2024/03/29 05:46:54;;;;;;;2.80;0.70;;;;;;;8.32;67.81;153497.31;5111397;28;20448;-91
2024/03/29 05:49:21;;;;;;;0.90;0.60;;;;;;;8.35;68.62;153505.06;5065895;28;20433;-91
2024/03/29 05:51:47;;;;;;;0.90;0.60;;;;;;;8.37;65.84;153510.22;5079915;28;20703;-89
2024/03/29 05:54:15;;;;;;;1.10;0.50;;;;;;;8.43;65.90;153525.75;5093688;28;20484;-92
2024/03/29 05:56:42;;;;;;;1.47;0.60;;;;;;;8.49;68.48;153541.28;5093723;28;20564;-92
2024/03/29 05:59:09;;;;;;;1.00;0.80;;;;;;;8.46;70.02;153532.22;5083624;28;21009;-89
2024/03/29 06:01:36;;;;;;;1.20;0.70;;;;;;;8.43;71.91;153525.75;5095501;27;20452;-90
2024/03/29 06:04:08;;;;;;;1.23;0.70;;;;;;;8.39;71.68;153514.13;5114721;27;20459;-90
2024/03/29 06:06:35;;;;;;;1.10;0.70;;;;;;;8.38;72.50;153512.84;5092193;27;20485;-90
2024/03/29 06:09:01;;;;;;;0.90;0.60;;;;;;;8.34;69.15;153501.22;5083564;28;21003;-90
2024/03/29 06:11:29;;;;;;;1.27;0.80;;;;;;;8.39;67.72;153514.13;5084649;28;20510;-91
2024/03/29 06:19:22;;;;;;;1.10;0.50;;;;;;;8.55;68.70;153555.50;5093236;27;20814;-90
2024/03/29 06:21:49;;;;;;;1.10;0.60;;;;;;;8.57;66.80;153561.97;5093337;28;20498;-90
2024/03/29 06:24:16;;;;;;;1.70;0.70;;;;;;;8.66;65.14;153583.91;5113658;27;20459;-91
2024/03/29 06:26:44;;;;;;;1.20;0.60;;;;;;;8.73;64.07;153602.03;5104266;27;20444;-92
2024/03/29 06:29:11;;;;;;;2.10;1.10;;;;;;;8.78;64.14;153613.66;5114240;27;20443;-91
2024/03/29 06:31:37;;;;;;;1.50;0.53;;;;;;;8.85;63.26;153631.75;5075416;28;20822;-92
2024/03/29 06:34:04;;;;;;;1.17;0.60;;;;;;;8.90;63.32;153644.66;5110698;27;20464;-86
2024/03/29 06:36:31;;;;;;;1.20;0.90;;;;;;;8.96;62.43;153660.19;5115563;27;20471;-92
2024/03/29 06:38:57;;;;;;;1.10;0.70;;;;;;;9.02;60.76;153675.72;5103360;27;20456;-92
2024/03/29 06:41:24;;;;;;;1.10;0.57;;;;;;;9.05;60.76;153683.50;5099360;28;21095;-91
2024/03/29 06:43:52;;;;;;;1.30;0.60;;;;;;;9.17;58.57;153714.50;5093080;27;20515;-91
2024/03/29 06:46:18;;;;;;;1.33;0.80;;;;;;;9.21;59.54;153724.88;5114676;27;20452;-90
2024/03/29 06:48:45;;;;;;;1.20;0.70;;;;;;;9.24;58.53;153732.59;5113917;27;20447;-91
2024/03/29 06:51:11;;;;;;;1.00;0.60;;;;;;;9.32;58.58;153753.31;5110077;27;20448;-91
2024/03/29 06:53:38;;;;;;;1.00;0.60;;;;;;;9.31;58.59;153750.75;5096626;27;20499;-93
2024/03/29 06:56:05;;;;;;;2.40;1.00;;;;;;;9.32;57.94;153753.31;5117839;27;20448;-91
2024/03/29 06:58:32;;;;;;;1.43;0.60;;;;;;;9.34;57.95;153757.22;5097942;27;20453;-90
2024/03/29 07:01:00;;;;;;;1.23;0.77;;;;;;;9.34;58.60;153758.50;5097530;27;20455;-91
2024/03/29 07:03:26;;;;;;;0.80;0.50;;;;;;;9.39;57.91;153770.13;5076463;27;20525;-90
2024/03/29 07:05:53;;;;;;;1.10;0.60;;;;;;;9.39;57.56;153771.44;5073664;27;20483;-91
2024/03/29 07:08:20;;;;;;;1.17;0.70;;;;;;;9.42;57.49;153779.22;5078850;27;20492;-91
2024/03/29 07:10:46;;;;;;;2.00;1.30;;;;;;;9.43;57.42;153781.75;5096446;28;20471;-91
2024/03/29 07:13:13;;;;;;;1.47;1.13;;;;;;;9.48;57.87;153793.41;5113935;27;20472;-91
2024/03/29 07:15:39;;;;;;;2.60;0.80;;;;;;;9.47;59.79;153792.13;5070114;28;20556;-92
2024/03/29 07:18:07;;;;;;;1.40;0.90;;;;;;;9.46;58.79;153789.53;5109669;27;20460;-92
2024/03/29 07:20:34;;;;;;;1.00;0.50;;;;;;;9.46;59.13;153788.22;5076170;28;20464;-92
2024/03/29 07:23:00;;;;;;;1.37;0.90;;;;;;;9.50;60.18;153799.91;5104908;28;20447;-92
2024/03/29 07:25:30;;;;;;;1.03;0.60;;;;;;;9.47;60.85;153790.84;5107466;28;20440;-90
2024/03/29 07:27:56;;;;;;;1.13;0.77;;;;;;;9.46;61.05;153789.53;5121897;27;20471;-89
2024/03/29 07:30:23;;;;;;;2.23;0.73;;;;;;;9.46;65.09;153789.53;5108833;27;20460;-88
2024/03/29 07:32:49;;;;;;;1.63;0.80;;;;;;;9.44;66.26;153784.38;5114449;27;20507;-88
2024/03/29 07:35:18;;;;;;;2.10;0.90;;;;;;;9.39;66.10;153770.13;5090442;27;20925;-88
2024/03/29 07:37:47;;;;;;;3.00;1.00;;;;;;;9.37;69.18;153766.22;5098243;27;20451;-85
2024/03/29 07:40:14;;;;;;;2.20;1.07;;;;;;;9.39;74.18;153770.13;5113932;27;20444;-86
2024/03/29 07:42:41;;;;;;;1.97;1.13;;;;;;;9.35;76.65;153761.06;5113278;27;20857;-87
2024/03/29 07:45:11;;;;;;;1.33;0.97;;;;;;;9.33;80.32;153755.91;5062005;27;20470;-87
2024/03/29 07:47:40;;;;;;;1.30;0.90;;;;;;;9.29;82.06;153745.59;5079327;27;20449;-91
2024/03/29 07:50:08;;;;;;;3.43;1.43;;;;;;;9.21;82.48;153723.59;5103034;27;20455;-92
2024/03/29 07:52:36;;;;;;;1.73;0.90;;;;;;;9.22;84.29;153727.44;5117924;27;20574;-91
2024/03/29 07:55:02;;;;;;;2.23;1.00;;;;;;;9.19;86.36;153719.69;5119211;27;20456;-90
2024/03/29 07:57:31;;;;;;;1.40;0.90;;;;;;;9.15;87.50;153709.34;5106015;27;20528;-90
2024/03/29 07:59:59;;;;;;;1.90;1.13;;;;;;;9.09;88.14;153695.13;5098205;28;20863;-90
2024/03/29 08:02:26;;;;;;;1.63;1.00;;;;;;;9.02;87.05;153677.03;5110997;27;20438;-89
2024/03/29 08:04:55;;;;;;;1.20;0.80;;;;;;;9.02;87.03;153675.72;5113741;27;20935;-87
2024/03/29 08:07:22;;;;;;;1.40;1.00;;;;;;;9.01;88.08;153673.13;5110863;28;21008;-87
2024/03/29 08:09:50;;;;;;;1.20;1.00;;;;;;;9.01;89.50;153673.13;5091168;28;20946;-88
2024/03/29 08:12:17;;;;;;;2.23;1.20;;;;;;;8.97;90.42;153662.81;5091134;28;20891;-88
2024/03/29 08:14:46;;;;;;;1.50;1.03;;;;;;;8.95;91.89;153658.91;5093856;28;20554;-88
2024/03/29 08:17:13;;;;;;;2.03;1.43;;;;;;;8.92;92.70;153651.13;5112711;27;20844;-89
2024/03/29 08:19:41;;;;;;;1.90;1.20;;;;;;;8.90;93.32;153644.66;5070005;28;20559;-89
2024/03/29 08:22:10;;;;;;;1.97;1.17;;;;;;;8.89;93.86;153642.13;5096778;28;20451;-88
2024/03/29 08:24:36;;;;;;;2.13;1.87;;;;;;;8.89;94.77;153642.13;5107335;28;20859;-87
2024/03/29 08:27:06;;;;;;;1.63;1.10;;;;;;;8.88;96.06;153639.50;5092479;28;20460;-88
2024/03/29 08:29:34;;;;;;;1.83;1.40;;;;;;;8.88;96.90;153640.81;5081672;28;20455;-89
2024/03/29 08:32:01;;;;;;;2.60;1.57;;;;;;;8.90;97.73;153645.97;5110137;28;20448;-90
2024/03/29 08:34:34;;;;;;;1.63;1.33;;;;;;;8.89;98.33;153642.13;5107515;28;20537;-90
2024/03/29 08:37:03;;;;;;;2.20;1.30;;;;;;;8.88;98.92;153639.50;5090713;28;20441;-90
2024/03/29 08:39:29;;;;;;;1.77;1.53;;;;;;;8.88;99.55;153639.50;5108111;28;20451;-91
2024/03/29 08:41:56;;;;;;;1.53;1.33;;;;;;;8.90;100.00;153644.66;5095067;27;20456;-90
2024/03/29 08:44:24;;;;;;;1.90;1.20;;;;;;;8.93;100.00;153653.72;5074471;27;20555;-90
2024/03/29 08:46:51;;;;;;;2.50;1.40;;;;;;;8.98;100.00;153666.66;5120058;27;20533;-91
2024/03/29 08:49:17;;;;;;;2.37;1.67;;;;;;;9.04;100.00;153680.88;5096021;28;20883;-91
2024/03/29 08:51:44;;;;;;;1.60;1.10;;;;;;;9.09;100.00;153693.81;5091673;27;20461;-91
2024/03/29 08:54:10;;;;;;;1.50;1.10;;;;;;;9.16;100.00;153711.91;5076886;28;20503;-93
2024/03/29 08:56:37;;;;;;;1.00;0.80;;;;;;;9.20;100.00;153722.28;5105006;27;20455;-90
2024/03/29 08:59:07;;;;;;;1.73;1.10;;;;;;;9.24;100.00;153732.59;5116976;27;20470;-92
2024/03/29 09:01:37;;;;;;;2.00;1.33;;;;;;;9.28;100.00;153741.69;5096927;28;20548;-92
2024/03/29 09:04:06;;;;;;;2.90;1.37;;;;;;;9.30;100.00;153746.84;5091146;27;20455;-92
2024/03/29 09:06:33;;;;;;;3.33;2.20;;;;;;;9.34;100.00;153758.50;5091130;27;20462;-92
2024/03/29 09:08:59;;;;;;;2.80;1.20;;;;;;;9.37;100.00;153766.22;5089956;28;20484;-92
2024/03/29 09:11:26;;;;;;;1.40;1.00;;;;;;;9.41;100.00;153775.31;5112293;27;20464;-91
2024/03/29 09:13:53;;;;;;;2.73;1.33;;;;;;;9.45;100.00;153786.94;5110469;27;20512;-93
2024/03/29 09:16:20;;;;;;;1.50;1.30;;;;;;;9.52;100.00;153805.06;5090948;28;20929;-93
2024/03/29 09:18:48;;;;;;;1.63;1.10;;;;;;;9.61;100.00;153828.34;5073809;28;20463;-93
2024/03/29 09:21:15;;;;;;;1.90;1.20;;;;;;;9.73;100.00;153859.41;5123291;27;20497;-95
2024/03/29 09:23:41;;;;;;;1.27;1.00;;;;;;;9.90;100.00;153900.81;5104263;27;20475;-94
2024/03/29 09:26:08;;;;;;;3.57;1.33;;;;;;;9.98;100.00;153921.53;5098753;28;20455;-94
2024/03/29 09:28:36;;;;;;;1.33;1.00;;;;;;;9.97;100.00;153918.91;5123426;27;20960;-94
2024/03/29 09:31:03;;;;;;;2.30;0.90;;;;;;;9.98;100.00;153921.53;5103592;27;20450;-94
2024/03/29 09:33:29;;;;;;;2.13;1.10;;;;;;;9.99;100.00;153924.09;5094587;28;20501;-95
2024/03/29 09:35:59;;;;;;;2.13;1.30;;;;;;;10.03;100.00;153934.47;5092031;28;20456;-95
2024/03/29 09:38:26;;;;;;;1.60;1.30;;;;;;;10.00;100.00;153926.69;5110226;28;20538;-94
2024/03/29 09:40:59;;;;;;;1.50;1.30;;;;;;;10.01;100.00;153930.56;5106838;28;20467;-95
2024/03/29 09:43:27;;;;;;;1.80;1.33;;;;;;;10.02;100.00;153933.16;5104760;28;20460;-94
2024/03/29 09:45:54;;;;;;;4.10;1.40;;;;;;;10.07;100.00;153946.09;5100481;28;20486;-94
2024/03/29 09:48:22;;;;;;;1.57;1.00;;;;;;;10.14;100.00;153963.00;5116123;27;20951;-94
2024/03/29 09:50:50;;;;;;;1.30;0.93;;;;;;;10.24;100.00;153988.88;5086236;28;20816;-94
2024/03/29 09:53:19;;;;;;;1.80;1.27;;;;;;;10.26;100.00;153994.03;5091314;27;20495;-95
2024/03/29 09:55:47;;;;;;;3.27;1.30;;;;;;;10.37;100.00;154023.84;5116172;27;20438;-94
2024/03/29 09:58:13;;;;;;;1.40;1.10;;;;;;;10.49;100.00;154053.59;5099600;28;20865;-94
2024/03/29 10:00:43;;;;;;;2.67;1.63;;;;;;;10.53;100.00;154063.97;5112944;27;20797;-94
2024/03/29 10:03:10;;;;;;;2.07;1.60;;;;;;;10.56;100.00;154071.75;5135441;27;20542;-94
2024/03/29 10:05:40;;;;;;;2.80;1.90;;;;;;;10.59;100.00;154079.47;5135394;27;20439;-94
2024/03/29 10:08:07;;;;;;;2.37;1.97;;;;;;;10.52;100.00;154061.34;5116553;27;20463;-94
2024/03/29 10:10:35;;;;;;;2.13;1.93;;;;;;;10.50;100.00;154056.19;5135638;27;20435;-94
2024/03/29 10:13:02;;;;;;;3.50;1.87;;;;;;;10.39;100.00;154027.69;5135280;27;20534;-94
2024/03/29 10:15:33;;;;;;;2.57;2.37;;;;;;;10.45;100.00;154043.25;5116475;27;20456;-95
2024/03/29 10:17:59;;;;;;;3.70;2.17;;;;;;;10.52;100.00;154061.34;5099903;27;20474;-94
2024/03/29 10:20:27;;;;;;;2.77;2.57;;;;;;;10.56;100.00;154071.75;5136394;27;20916;-94
2024/03/29 10:22:55;;;;;;;3.10;2.47;;;;;;;10.65;100.00;154093.72;5117292;27;20447;-94
2024/03/29 10:25:25;;;;;;;3.27;2.07;;;;;;;10.74;100.00;154117.03;5116615;27;20798;-94
2024/03/29 10:27:56;;;;;;;4.00;2.20;;;;;;;10.84;100.00;154142.94;5099326;27;20551;-92
2024/03/29 10:30:25;;;;;;;2.60;2.33;;;;;;;11.01;100.00;154188.25;5135008;27;20550;-93
2024/03/29 10:32:52;;;;;;;2.70;2.50;;;;;;;11.11;100.00;154212.88;5116682;27;20475;-94
2024/03/29 10:35:19;;;;;;;9.43;6.00;;;;;;;11.11;100.00;154211.59;5116328;27;20724;-93
2024/03/29 10:37:46;;;;;;;4.83;3.53;;;;;;;11.08;100.00;154203.81;5135560;27;20475;-94
2024/03/29 10:40:15;;;;;;;4.10;3.33;;;;;;;11.15;100.00;154221.94;5101693;27;20430;-94
2024/03/29 10:42:42;;;;;;;2.50;2.10;;;;;;;11.15;99.82;154221.94;5137069;27;20459;-95
2024/03/29 10:45:18;;;;;;;3.57;1.93;;;;;;;11.24;100.00;154245.25;5121717;27;20451;-94
2024/03/29 10:47:46;;;;;;;2.30;1.80;;;;;;;11.25;100.00;154247.88;5104376;27;20458;-94
2024/03/29 10:50:13;;;;;;;4.10;3.70;;;;;;;11.32;100.00;154266.00;5098186;28;20444;-95
2024/03/29 10:52:40;;;;;;;2.10;1.50;;;;;;;11.37;98.85;154280.25;5113914;28;20470;-95
2024/03/29 10:55:09;;;;;;;2.77;2.40;;;;;;;11.44;99.74;154297.06;5113997;28;20930;-95
2024/03/29 10:57:41;;;;;;;3.30;1.77;;;;;;;11.46;99.46;154302.28;5113417;28;20513;-94
2024/03/29 11:00:11;;;;;;;3.63;3.33;;;;;;;11.51;99.15;154316.53;5077665;28;20482;-94
2024/03/29 11:02:49;;;;;;;2.13;1.93;;;;;;;11.56;99.80;154329.50;5095669;28;20409;-95
2024/03/29 11:05:16;;;;;;;2.67;2.00;;;;;;;11.57;98.75;154330.75;5113423;28;20497;-96
2024/03/29 11:07:45;;;;;;;2.83;2.20;;;;;;;11.65;98.09;154351.50;5095111;28;20482;-94
2024/03/29 11:10:15;;;;;;;4.03;2.80;;;;;;;11.78;96.93;154385.22;5114093;28;20448;-94
2024/03/29 11:12:48;;;;;;;2.47;1.87;;;;;;;11.86;95.31;154405.97;5095088;28;20420;-95
2024/03/29 11:15:23;;;;;;;3.70;3.10;;;;;;;11.97;93.58;154433.19;5094681;28;20483;-94
2024/03/29 11:17:51;;;;;;;2.50;2.00;;;;;;;12.04;94.39;154452.69;5095008;28;20416;-96
2024/03/29 11:20:22;;;;;;;4.20;3.40;;;;;;;12.08;95.38;154461.72;5113802;28;20436;-95
2024/03/29 11:22:49;;;;;;;4.00;2.70;;;;;;;12.11;96.97;154469.50;5113475;28;20467;-95
2024/03/29 11:25:16;;;;;;;5.93;5.30;;;;;;;12.09;96.04;154464.31;5095146;28;20436;-95
2024/03/29 11:27:42;;;;;;;5.50;2.83;;;;;;;12.10;96.56;154468.19;5113568;28;20424;-96
2024/03/29 11:30:10;;;;;;;2.50;2.30;;;;;;;12.13;96.08;154475.97;5095567;28;20498;-95
2024/03/29 11:32:38;;;;;;;3.17;2.17;;;;;;;12.18;95.05;154488.94;5095388;28;20458;-95
2024/03/29 11:35:06;;;;;;;2.80;2.20;;;;;;;12.19;94.12;154491.56;5112982;28;20983;-96
2024/03/29 11:37:33;;;;;;;20.00;12.17;;;;;;;12.23;93.79;154499.34;5112135;28;20818;-95
2024/03/29 11:40:01;;;;;;;11.67;9.50;;;;;;;12.21;93.77;154496.72;5095122;28;20493;-96
2024/03/29 11:42:38;;;;;;;2.43;2.23;;;;;;;12.27;95.61;154511.00;5097055;27;20469;-95
2024/03/29 11:45:07;;;;;;;4.20;3.10;;;;;;;12.30;93.71;154517.47;5133785;27;20439;-95
2024/03/29 11:47:34;;;;;;;4.20;2.17;;;;;;;12.33;92.44;154525.25;5115756;27;20512;-95
2024/03/29 11:50:01;;;;;;;3.07;2.27;;;;;;;12.36;92.70;154534.34;5133256;27;20474;-95
2024/03/29 11:52:29;;;;;;;2.40;1.97;;;;;;;12.32;92.31;154522.66;5115018;27;20443;-94
2024/03/29 11:54:56;;;;;;;2.87;2.57;;;;;;;12.32;93.43;154523.94;5115049;27;20558;-95
2024/03/29 11:57:23;;;;;;;3.03;2.13;;;;;;;12.23;92.87;154501.91;5133313;27;20428;-94
2024/03/29 11:59:49;;;;;;;2.20;1.67;;;;;;;12.28;93.06;154512.31;5114039;27;20533;-92
2024/03/29 12:02:16;;;;;;;2.97;1.73;;;;;;;12.26;93.02;154508.38;5127846;27;20817;-94
2024/03/29 12:04:43;;;;;;;1.90;1.70;;;;;;;12.31;93.29;154521.34;5124206;27;20782;-95
2024/03/29 12:07:10;;;;;;;2.27;1.60;;;;;;;12.40;93.67;154543.41;5134814;27;20434;-94
2024/03/29 12:09:38;;;;;;;2.20;1.50;;;;;;;12.42;92.65;154548.56;5135788;27;20427;-96
2024/03/29 12:12:09;;;;;;;2.70;1.67;;;;;;;12.47;91.29;154561.59;5117953;27;20478;-96
2024/03/29 12:14:37;;;;;;;2.43;1.57;;;;;;;12.56;91.63;154584.91;5117956;27;20473;-96
2024/03/29 12:17:10;;;;;;;2.07;1.07;;;;;;;12.66;88.34;154610.81;5135471;27;20443;-96
2024/03/29 12:19:38;;;;;;;3.03;1.30;;;;;;;12.77;86.41;154639.38;5116159;28;20895;-96
2024/03/29 12:22:05;;;;;;;2.37;1.53;;;;;;;12.84;86.23;154658.81;5133798;27;21069;-94
2024/03/29 12:24:32;;;;;;;2.50;1.10;;;;;;;12.96;84.86;154688.66;5119261;28;20440;-96
2024/03/29 12:27:01;;;;;;;1.67;1.40;;;;;;;12.99;84.79;154696.47;5095479;28;20484;-96
2024/03/29 12:29:28;;;;;;;2.93;1.00;;;;;;;13.13;84.08;154732.78;5079128;28;20462;-96
2024/03/29 12:32:00;;;;;;;3.87;1.40;;;;;;;13.31;84.00;154778.25;5079497;28;20464;-96
2024/03/29 12:34:27;;;;;;;1.17;0.87;;;;;;;13.42;82.26;154808.06;5078988;28;20468;-96
2024/03/29 12:36:54;;;;;;;2.73;1.40;;;;;;;13.41;82.48;154804.19;5077458;28;20544;-95
2024/03/29 12:39:24;;;;;;;1.80;1.33;;;;;;;13.44;84.78;154811.97;5078190;28;20440;-95
2024/03/29 12:41:53;;;;;;;2.00;1.37;;;;;;;13.51;85.08;154828.81;5079659;28;20436;-95
2024/03/29 12:44:21;;;;;;;2.27;1.50;;;;;;;13.53;83.23;154835.31;5081796;28;20436;-95
2024/03/29 12:46:48;;;;;;;1.90;1.40;;;;;;;13.55;82.99;154839.22;5078845;28;20455;-95
2024/03/29 12:49:16;;;;;;;1.73;0.93;;;;;;;13.61;82.69;154854.81;5078575;28;20478;-95
2024/03/29 12:51:45;;;;;;;2.27;1.60;;;;;;;13.76;83.09;154893.75;5079571;28;20440;-95
2024/03/29 12:54:12;;;;;;;2.37;1.30;;;;;;;13.84;82.76;154914.50;5082326;28;20476;-95
2024/03/29 12:56:41;;;;;;;1.43;0.70;;;;;;;13.86;78.23;154919.69;5079216;28;20442;-94
2024/03/29 12:59:08;;;;;;;2.13;1.27;;;;;;;13.90;79.71;154930.06;5079758;28;20442;-94
2024/03/29 13:01:38;;;;;;;1.57;1.13;;;;;;;13.90;80.09;154930.06;5081503;28;20443;-94
2024/03/29 13:04:05;;;;;;;1.70;1.10;;;;;;;13.94;80.51;154941.78;5083830;28;20455;-94
2024/03/29 13:06:32;;;;;;;1.60;1.00;;;;;;;13.97;80.23;154949.56;5084174;28;20464;-94
2024/03/29 13:08:59;;;;;;;1.90;1.20;;;;;;;14.06;79.88;154971.59;5081606;28;20580;-93
2024/03/29 13:11:26;;;;;;;2.00;1.30;;;;;;;14.12;80.26;154985.88;5078821;28;20516;-94
2024/03/29 13:13:53;;;;;;;2.00;1.13;;;;;;;14.19;81.39;155005.34;5078007;28;21352;-94
2024/03/29 13:16:20;;;;;;;2.83;1.30;;;;;;;14.27;78.92;155026.13;5079417;28;20487;-94
2024/03/29 13:18:49;;;;;;;1.97;1.33;;;;;;;14.33;79.19;155040.47;5080086;28;20444;-94
2024/03/29 13:21:16;;;;;;;1.90;1.30;;;;;;;14.29;78.97;155031.38;5079188;28;20447;-93
2024/03/29 13:23:43;;;;;;;1.73;1.23;;;;;;;14.32;79.13;155039.16;5078263;28;20455;-94
2024/03/29 13:26:10;;;;;;;3.83;1.20;;;;;;;14.30;78.61;155033.94;5076104;28;20486;-93
2024/03/29 13:28:36;;;;;;;2.33;1.60;;;;;;;14.25;79.66;155019.66;5078815;28;20451;-94
2024/03/29 13:31:03;;;;;;;1.57;1.10;;;;;;;14.25;78.48;155019.66;5078285;28;20488;-93